Copenhagen, Denmark

12:28 AM CET on January 27, 2015 (GMT +0100)
Kastrup | Change Station
CLOSE
Current Station
Personal Weather Station
Location: Kastrup,
Elevation: 13 ft
Nearby Weather Stations

Elev 13 ft 55.64 °N, 12.60 °E | Updated 5 seconds ago

Rain
Rain
38.7 °F
Feels Like 36 °F
N
3.8
Wind Variable Wind from NNW
Gusts 8.3 mph

Today
High -- | Low -- °F
--% Chance of Precip.
Yesterday
High -- | Low -- °F
Precip. -- in
8:12 AM 4:32 PM
Waxing Crescent, 48% visible
Pressure 29.71 in
Visibility 6.2 miles
Clouds Scattered Clouds 700 ft
Mostly Cloudy 900 ft
Windchill 36 °F
Dew Point 36 °F
Humidity 92%
Rainfall 0.00 in
Snow Depth Not available.
UV 0 out of 12
Pollen Not available.
Air Quality Not available.
Flu Activity Not available.
METAR EKCH 262320Z 29010KT 9999 SCT007 BKN009 04/03 Q1006 BECMG SCT012

More Conditions Fewer Conditions

Pressure 29.71 in
Visibility 6.2 miles
Clouds Scattered Clouds 700 ft
Mostly Cloudy 900 ft
Windchill 36 °F
Dew Point 36 °F
Humidity 92%
Rainfall 0.00 in
Snow Depth Not available.
UV 0 out of 12
Pollen Not available.
Air Quality Not available.
Flu Activity Not available.
METAR EKCH 262320Z 29010KT 9999 SCT007 BKN009 04/03 Q1006 BECMG SCT012

More Conditions Fewer Conditions

10-Day Weather Forecast

Almanac

Astronomy

Jan. 27, 2015 Rise Set
Actual Time
Civil Twilight
Nautical Twilight
Astronomical Twilight
Moon
Length of Visible Light
Length of Day
Tomorrow will be .
, % of the Moon is Illuminated

Today's Extremes

Country Highs Country Lows

Community

WunderPhotos

Upload Photos

1,790,394 photos uploaded!

WunderBlogs® & News

Nearby

Air Quality

  Air Quality AQ Index Pollutant
Not available.

Snow Depth

Station Depth Elevation

Earthquake Activity

City Distance Mag. Time & Date
Minimum magnitude displayed is 2.5.

Coastal Water Temperatures

Place Temperature

Nearby Weather Stations